createdAt,value
2022-12-29T07:52:51.972Z,100647.30
2022-12-29T07:53:58.005Z,100647.30
2022-12-29T07:55:04.144Z,100643.55
2022-12-29T07:56:06.612Z,100646.30
2022-12-29T07:57:10.185Z,100647.58
2022-12-29T07:58:13.099Z,100638.56
2022-12-29T07:59:18.143Z,100633.14
2022-12-29T08:00:22.760Z,100639.45
2022-12-29T08:01:26.708Z,100626.55
2022-12-29T08:02:31.161Z,100632.34
2022-12-29T08:03:34.494Z,100643.86
2022-12-29T08:04:38.492Z,100647.45
2022-12-29T08:05:41.224Z,100651.65
2022-12-29T08:06:47.141Z,100658.64
2022-12-29T08:07:51.491Z,100666.20
2022-12-29T08:08:54.695Z,100649.48
2022-12-29T08:09:59.606Z,100659.23
2022-12-29T08:11:02.236Z,100654.88
2022-12-29T08:12:05.543Z,100653.34
2022-12-29T08:13:08.329Z,100648.01
2022-12-29T08:14:11.154Z,100630.63
2022-12-29T08:15:14.510Z,100626.36
2022-12-29T08:16:20.852Z,100633.53
2022-12-29T08:17:24.102Z,100629.43
2022-12-29T08:18:28.371Z,100630.39
2022-12-29T08:19:30.968Z,100632.61
2022-12-29T08:20:36.376Z,100633.53
2022-12-29T08:21:39.733Z,100619.09
2022-12-29T08:22:43.092Z,100629.27
2022-12-29T08:23:46.322Z,100629.66
2022-12-29T08:24:50.646Z,100626.91
2022-12-29T08:26:01.650Z,100631.25
2022-12-29T08:27:13.336Z,100622.94
2022-12-29T08:28:09.768Z,100624.50
2022-12-29T08:29:14.155Z,100617.58
2022-12-29T08:30:17.986Z,100614.80
2022-12-29T08:31:20.919Z,100613.08
2022-12-29T08:32:24.292Z,100613.41
2022-12-29T08:33:27.398Z,100617.63
2022-12-29T08:34:31.948Z,100615.71
2022-12-29T08:35:35.096Z,100609.98
2022-12-29T08:36:38.703Z,100618.23
2022-12-29T08:37:41.869Z,100617.58
2022-12-29T08:38:46.201Z,100613.72
2022-12-29T08:39:52.459Z,100616.09
2022-12-29T08:40:55.797Z,100612.91
2022-12-29T08:41:59.117Z,100617.19
2022-12-29T08:43:02.175Z,100612.89
2022-12-29T08:44:07.352Z,100607.73
2022-12-29T08:45:12.592Z,100603.09
2022-12-29T08:46:16.137Z,100604.91
2022-12-29T08:47:18.704Z,100594.41
2022-12-29T08:48:23.597Z,100601.25
2022-12-29T08:49:26.647Z,100604.39
2022-12-29T08:50:30.178Z,100595.59
2022-12-29T08:51:32.488Z,100596.41
2022-12-29T08:52:35.906Z,100594.16
2022-12-29T08:53:39.461Z,100603.33
2022-12-29T08:54:42.180Z,100607.30
2022-12-29T08:55:49.987Z,100608.41
2022-12-29T08:56:55.511Z,100602.36
2022-12-29T08:58:00.585Z,100624.35
2022-12-29T08:59:04.378Z,100619.40
2022-12-29T09:00:08.571Z,100619.78
2022-12-29T09:01:12.018Z,100616.52
2022-12-29T09:02:22.121Z,100616.95
2022-12-29T09:03:54.593Z,100619.78
2022-12-29T09:04:28.576Z,100616.95
2022-12-29T09:05:31.864Z,100625.03
2022-12-29T09:06:39.926Z,100611.61
2022-12-29T09:07:39.816Z,100612.32
2022-12-29T09:08:42.993Z,100611.41
2022-12-29T09:09:45.338Z,100607.50
2022-12-29T09:10:49.469Z,100607.55
2022-12-29T09:11:52.019Z,100607.02
2022-12-29T09:12:55.251Z,100599.72
2022-12-29T09:13:58.454Z,100616.28
2022-12-29T09:15:02.216Z,100620.37
2022-12-29T09:16:05.788Z,100614.85
2022-12-29T09:17:26.726Z,100608.29
2022-12-29T09:18:31.219Z,100620.03
2022-12-29T09:19:34.356Z,100618.60
2022-12-29T09:20:38.391Z,100615.42
2022-12-29T09:21:42.396Z,100618.50
2022-12-29T09:22:46.015Z,100621.62
2022-12-29T09:23:48.874Z,100618.05
2022-12-29T09:24:53.847Z,100609.70
2022-12-29T09:25:57.040Z,100618.91
2022-12-29T09:27:00.505Z,100611.73
2022-12-29T09:28:05.749Z,100615.31
2022-12-29T09:29:09.038Z,100616.84
2022-12-29T09:30:13.471Z,100610.97
2022-12-29T09:31:19.599Z,100611.23
2022-12-29T09:32:23.636Z,100611.53
2022-12-29T09:33:28.032Z,100607.86
2022-12-29T09:34:31.369Z,100604.83
2022-12-29T09:35:34.651Z,100604.14
2022-12-29T09:36:40.500Z,100595.39
2022-12-29T09:37:44.121Z,100605.70
2022-12-29T09:38:48.103Z,100597.01
2022-12-29T09:39:54.531Z,100600.66
2022-12-29T09:41:05.156Z,100594.95
2022-12-29T09:42:10.039Z,100592.92
2022-12-29T09:43:14.150Z,100588.98
2022-12-29T09:44:19.200Z,100587.83
2022-12-29T09:45:44.159Z,100593.67
2022-12-29T09:46:52.291Z,100595.06
2022-12-29T09:47:57.503Z,100588.81
2022-12-29T09:49:07.453Z,100577.62
2022-12-29T09:50:11.871Z,100578.41
2022-12-29T09:51:18.102Z,100573.64
2022-12-29T09:52:22.217Z,100580.77
2022-12-29T09:53:32.936Z,100574.16
2022-12-29T09:54:40.805Z,100579.13
2022-12-29T09:55:46.681Z,100577.36
2022-12-29T09:56:49.618Z,100576.91
2022-12-29T09:58:00.465Z,100581.59
2022-12-29T09:59:08.189Z,100579.48
2022-12-29T10:00:15.581Z,100570.98
2022-12-29T10:01:32.872Z,100566.75
2022-12-29T10:02:37.911Z,100569.09
2022-12-29T10:03:52.201Z,100567.66
2022-12-29T10:04:55.374Z,100560.39
2022-12-29T10:06:08.528Z,100564.48
2022-12-29T10:07:31.087Z,100563.45
2022-12-29T10:08:32.783Z,100559.89
2022-12-29T10:09:40.260Z,100555.63
2022-12-29T10:10:45.393Z,100547.84
2022-12-29T10:12:06.049Z,100553.16
2022-12-29T10:13:12.206Z,100549.13
2022-12-29T10:14:18.460Z,100549.06
2022-12-29T10:15:26.558Z,100545.25
2022-12-29T10:16:37.427Z,100541.20
2022-12-29T10:17:57.983Z,100538.25
2022-12-29T10:19:14.815Z,100526.59
2022-12-29T10:20:34.370Z,100536.95
2022-12-29T10:21:38.816Z,100524.50
2022-12-29T10:23:01.755Z,100532.08
2022-12-29T10:24:06.519Z,100518.70
2022-12-29T10:25:10.552Z,100522.19
2022-12-29T10:26:18.488Z,100520.47
2022-12-29T10:27:22.270Z,100523.27
2022-12-29T10:28:28.367Z,100522.07
2022-12-29T10:29:35.017Z,100524.50
2022-12-29T10:30:38.424Z,100521.92
2022-12-29T10:31:46.090Z,100520.31
2022-12-29T10:32:52.889Z,100522.95
2022-12-29T10:33:59.165Z,100517.52
2022-12-29T10:35:05.993Z,100517.41
2022-12-29T10:36:16.862Z,100511.03
2022-12-29T10:37:33.988Z,100507.69
2022-12-29T10:38:50.435Z,100516.01
2022-12-29T10:39:55.137Z,100508.23
2022-12-29T10:41:04.016Z,100504.20
2022-12-29T10:42:14.805Z,100509.85
2022-12-29T10:43:24.856Z,100508.61
2022-12-29T10:44:29.531Z,100506.84
2022-12-29T10:45:35.592Z,100510.22
2022-12-29T10:46:41.868Z,100505.70
2022-12-29T10:47:48.368Z,100511.19
2022-12-29T10:48:53.151Z,100512.16
2022-12-29T10:49:55.739Z,100514.61
2022-12-29T10:51:02.757Z,100506.51
2022-12-29T10:52:05.362Z,100507.42
2022-12-29T10:53:08.679Z,100508.44
2022-12-29T10:54:25.791Z,100504.39
2022-12-29T10:55:31.615Z,100499.03
2022-12-29T10:56:39.221Z,100506.14
2022-12-29T10:57:48.356Z,100507.59
2022-12-29T10:58:52.379Z,100516.17
2022-12-29T10:59:55.686Z,100506.89
2022-12-29T11:00:59.273Z,100505.50
2022-12-29T11:02:07.396Z,100510.33
2022-12-29T11:03:15.530Z,100504.31
2022-12-29T11:04:38.487Z,100506.84
2022-12-29T11:05:59.482Z,100493.80
2022-12-29T11:07:03.178Z,100497.59
2022-12-29T11:08:07.509Z,100487.55
2022-12-29T11:09:11.984Z,100489.13
2022-12-29T11:10:33.554Z,100492.55
2022-12-29T11:11:37.939Z,100500.39
2022-12-29T11:12:41.070Z,100498.06
2022-12-29T11:13:56.096Z,100496.09
2022-12-29T11:15:03.584Z,100490.84
2022-12-29T11:16:07.082Z,100484.97
2022-12-29T11:17:12.183Z,100492.32
2022-12-29T11:18:25.731Z,100488.45
2022-12-29T11:19:30.357Z,100491.09
2022-12-29T11:20:39.689Z,100483.15
2022-12-29T11:21:47.016Z,100491.70
2022-12-29T11:22:50.258Z,100490.61
2022-12-29T11:24:00.821Z,100491.14
2022-12-29T11:25:08.942Z,100488.78
2022-12-29T11:26:13.947Z,100486.69
2022-12-29T11:27:18.206Z,100483.81
2022-12-29T11:28:21.337Z,100475.34
2022-12-29T11:29:27.299Z,100484.67
2022-12-29T11:30:31.739Z,100483.92
2022-12-29T11:31:47.127Z,100487.60
2022-12-29T11:32:53.888Z,100480.84
2022-12-29T11:33:58.263Z,100485.41
2022-12-29T11:35:05.303Z,100478.80
2022-12-29T11:36:19.135Z,100487.02
2022-12-29T11:37:24.841Z,100483.31
2022-12-29T11:38:29.977Z,100483.31
2022-12-29T11:39:51.738Z,100482.11
2022-12-29T11:40:55.114Z,100485.59
2022-12-29T11:42:00.556Z,100475.64
2022-12-29T11:43:04.780Z,100477.61
2022-12-29T11:44:07.070Z,100477.41
2022-12-29T11:45:24.163Z,100475.53
2022-12-29T11:46:32.383Z,100478.16
2022-12-29T11:47:37.931Z,100478.75
2022-12-29T11:48:42.047Z,100482.34
2022-12-29T11:49:46.032Z,100492.86
2022-12-29T11:50:53.235Z,100493.41
2022-12-29T11:51:58.124Z,100498.56
2022-12-29T11:53:09.050Z,100492.23
2022-12-29T11:54:15.151Z,100487.52
2022-12-29T11:55:20.457Z,100492.77
2022-12-29T11:56:25.221Z,100490.14
2022-12-29T11:57:28.060Z,100491.37
2022-12-29T11:58:33.828Z,100495.23
2022-12-29T11:59:42.041Z,100491.31
2022-12-29T12:00:46.114Z,100500.89
2022-12-29T12:01:49.687Z,100500.55
2022-12-29T12:03:04.027Z,100503.94
2022-12-29T12:05:25.014Z,100494.97
2022-12-29T12:06:28.295Z,100498.28
2022-12-29T12:07:32.747Z,100496.15
2022-12-29T12:08:38.999Z,100501.25
2022-12-29T12:09:47.055Z,100500.89
2022-12-29T12:11:07.948Z,100503.02
2022-12-29T12:12:12.256Z,100504.46
2022-12-29T12:13:23.600Z,100499.64
2022-12-29T12:14:29.712Z,100508.48
2022-12-29T12:15:45.922Z,100498.98
2022-12-29T12:16:49.200Z,100500.10
2022-12-29T12:17:57.364Z,100501.46
2022-12-29T12:19:07.641Z,100506.27
2022-12-29T12:20:12.756Z,100511.93
2022-12-29T12:21:25.940Z,100503.08
2022-12-29T12:22:32.366Z,100508.39
2022-12-29T12:23:40.680Z,100505.20
2022-12-29T12:24:47.033Z,100508.00
2022-12-29T12:25:54.914Z,100507.26
2022-12-29T12:27:02.262Z,100509.88
2022-12-29T12:28:19.655Z,100513.48
2022-12-29T12:29:25.049Z,100510.34
2022-12-29T12:30:30.227Z,100515.72
2022-12-29T12:31:42.819Z,100514.45
2022-12-29T12:32:47.945Z,100510.61
2022-12-29T12:33:53.993Z,100513.14
2022-12-29T12:34:57.614Z,100515.77
2022-12-29T12:36:17.830Z,100509.59
2022-12-29T12:37:40.890Z,100512.52
2022-12-29T12:38:47.830Z,100518.44
2022-12-29T12:40:04.176Z,100517.61
2022-12-29T12:42:47.857Z,100511.55
2022-12-29T12:44:03.037Z,100508.92
2022-12-29T12:45:16.456Z,100510.16
2022-12-29T12:46:25.145Z,100510.16
2022-12-29T12:47:34.370Z,100512.80
2022-12-29T12:48:42.435Z,100516.34
2022-12-29T12:49:52.846Z,100514.67
2022-12-29T12:50:57.500Z,100511.23
2022-12-29T12:52:05.888Z,100506.03
2022-12-29T12:53:11.723Z,100506.95
2022-12-29T12:54:26.281Z,100504.52
2022-12-29T12:55:43.485Z,100506.03
2022-12-29T12:57:06.443Z,100502.61
2022-12-29T12:58:20.572Z,100493.95
2022-12-29T12:59:43.273Z,100496.32
2022-12-29T13:00:50.978Z,100492.45
2022-12-29T13:02:06.363Z,100488.16
2022-12-29T13:03:28.988Z,100490.95
2022-12-29T13:04:43.261Z,100490.17
2022-12-29T13:05:47.404Z,100481.75
2022-12-29T13:07:04.280Z,100483.47
2022-12-29T13:08:20.038Z,100489.42
2022-12-29T13:09:25.186Z,100480.04
2022-12-29T13:10:33.283Z,100479.12
2022-12-29T13:11:53.442Z,100484.83
2022-12-29T13:12:57.618Z,100475.01
2022-12-29T13:14:11.372Z,100481.14
2022-12-29T13:15:24.493Z,100475.19
2022-12-29T17:09:48.671Z,100451.87
2022-12-29T17:11:16.210Z,100457.03
2022-12-29T17:12:21.016Z,100453.30
2022-12-29T17:13:24.326Z,100451.58
2022-12-29T17:14:41.098Z,100454.03
2022-12-29T17:15:44.443Z,100457.55
2022-12-29T17:16:50.919Z,100459.27
2022-12-29T17:17:54.894Z,100454.08
2022-12-29T17:18:59.850Z,100454.89
2022-12-29T17:21:27.513Z,100453.05
2022-12-29T17:22:31.123Z,100458.25
2022-12-29T17:23:35.458Z,100459.31
2022-12-29T17:24:38.342Z,100458.70
2022-12-29T17:25:43.969Z,100452.44
2022-12-29T17:26:48.793Z,100448.84
2022-12-29T17:27:55.326Z,100461.03
2022-12-29T17:28:58.665Z,100448.14
2022-12-29T17:30:03.332Z,100451.09
2022-12-29T17:31:07.659Z,100445.85
2022-12-29T17:32:12.480Z,100442.33
2022-12-29T17:33:19.165Z,100451.09
2022-12-29T17:34:22.835Z,100450.23
2022-12-29T17:35:25.279Z,100443.15
2022-12-29T17:36:29.530Z,100449.29
2022-12-29T17:37:34.734Z,100454.48
2022-12-29T17:38:38.519Z,100450.15
2022-12-29T17:39:41.807Z,100447.53
2022-12-29T17:40:45.103Z,100449.45
2022-12-29T17:41:49.247Z,100450.27
2022-12-29T17:42:56.815Z,100445.20
2022-12-29T17:44:01.276Z,100448.95
2022-12-29T17:45:06.132Z,100448.02
2022-12-29T17:46:13.107Z,100441.92
2022-12-29T17:47:17.418Z,100446.25
2022-12-29T17:48:22.165Z,100441.59
2022-12-29T17:49:25.492Z,100440.82
2022-12-29T17:50:30.360Z,100434.84
2022-12-29T17:51:34.161Z,100437.63
2022-12-29T17:52:38.314Z,100428.83
2022-12-29T17:53:41.829Z,100432.02
2022-12-29T17:54:46.021Z,100428.59
2022-12-29T17:57:17.612Z,100427.02
2022-12-29T17:58:22.867Z,100427.02
2022-12-29T17:59:27.198Z,100428.66
2022-12-29T18:00:32.283Z,100428.86
2022-12-29T18:01:37.398Z,100427.27
2022-12-29T18:02:41.201Z,100428.09
2022-12-29T18:03:44.638Z,100429.48
2022-12-29T18:04:48.284Z,100431.36
2022-12-29T18:05:51.780Z,100424.41
2022-12-29T18:06:58.230Z,100432.11
2022-12-29T18:08:01.784Z,100425.06
2022-12-29T18:09:07.111Z,100430.22
2022-12-29T18:10:10.710Z,100431.94
2022-12-29T18:11:18.156Z,100436.31
2022-12-29T18:12:24.947Z,100428.50
2022-12-29T18:13:41.882Z,100427.56
2022-12-29T18:14:38.216Z,100427.59
2022-12-29T18:15:41.742Z,100427.64
2022-12-29T18:16:45.003Z,100424.85
2022-12-29T18:17:49.346Z,100414.21
2022-12-29T18:18:54.272Z,100423.22
2022-12-29T18:19:58.509Z,100422.40
2022-12-29T18:21:01.217Z,100423.09
2022-12-29T18:22:04.941Z,100417.12
2022-12-29T18:23:10.117Z,100420.92
2022-12-29T18:24:16.223Z,100415.94
2022-12-29T18:25:31.453Z,100413.64
2022-12-29T18:26:39.954Z,100416.30
2022-12-29T18:27:43.459Z,100412.09
2022-12-29T18:28:50.088Z,100417.45
2022-12-29T18:29:53.341Z,100408.00
2022-12-29T18:30:57.348Z,100417.16
2022-12-29T18:32:00.196Z,100411.22
2022-12-29T18:33:04.455Z,100412.89
2022-12-29T18:34:08.775Z,100419.07
2022-12-29T18:35:16.351Z,100406.80
2022-12-29T18:36:19.831Z,100414.50
2022-12-29T18:37:22.524Z,100410.47
2022-12-29T18:38:26.140Z,100406.72
2022-12-29T18:39:31.091Z,100408.27
2022-12-29T18:40:34.701Z,100413.72
2022-12-29T18:41:39.377Z,100414.84
2022-12-29T18:42:42.876Z,100412.31
2022-12-29T18:43:45.749Z,100412.23
2022-12-29T18:44:50.403Z,100414.89
2022-12-29T18:45:53.806Z,100410.52
2022-12-29T18:46:57.479Z,100412.15
2022-12-29T18:48:01.219Z,100413.09
2022-12-29T18:49:04.724Z,100413.47
2022-12-29T18:50:08.127Z,100403.59
2022-12-29T18:51:13.521Z,100401.06
2022-12-29T18:52:17.988Z,100411.91
2022-12-29T18:53:22.675Z,100413.59
2022-12-29T18:54:30.914Z,100409.89
2022-12-29T18:55:33.908Z,100410.47
2022-12-29T18:56:37.511Z,100407.63
2022-12-29T18:57:40.086Z,100413.13
2022-12-29T18:58:43.489Z,100406.17
2022-12-29T18:59:45.728Z,100424.02
2022-12-29T19:00:48.243Z,100403.64
2022-12-29T19:01:52.074Z,100403.48
2022-12-29T19:02:55.760Z,100408.79
2022-12-29T19:03:59.971Z,100412.15
2022-12-29T19:05:07.884Z,100406.99
2022-12-29T19:06:09.159Z,100413.75
2022-12-29T19:07:12.468Z,100415.39
2022-12-29T19:08:15.989Z,100413.55
2022-12-29T19:09:18.211Z,100412.61
2022-12-29T19:10:23.094Z,100404.88
2022-12-29T19:11:25.479Z,100412.86
2022-12-29T19:12:30.095Z,100408.02
2022-12-29T19:13:34.220Z,100412.94
2022-12-29T19:14:39.140Z,100403.78
2022-12-29T19:15:42.750Z,100410.66
2022-12-29T19:16:46.880Z,100403.70
2022-12-29T19:18:16.093Z,100397.35
2022-12-29T19:19:08.927Z,100397.35
2022-12-29T19:20:05.613Z,100400.67
2022-12-29T19:21:10.933Z,100401.69
2022-12-29T19:22:14.061Z,100401.90
2022-12-29T19:23:21.606Z,100410.57
2022-12-29T19:24:24.320Z,100407.88
2022-12-29T19:25:27.510Z,100422.73
2022-12-29T19:26:33.467Z,100405.70
2022-12-29T19:27:39.479Z,100414.67
2022-12-29T19:28:42.829Z,100414.41
2022-12-29T19:29:45.918Z,100408.23
2022-12-29T19:30:52.579Z,100410.13
2022-12-29T19:31:57.290Z,100412.95
2022-12-29T19:33:04.126Z,100411.84
2022-12-29T19:34:05.594Z,100401.97
2022-12-29T19:35:09.731Z,100404.71
2022-12-29T19:36:15.037Z,100409.83
2022-12-29T19:37:18.385Z,100398.45
2022-12-29T19:38:23.345Z,100412.03
2022-12-29T19:39:26.758Z,100411.38
2022-12-29T19:40:31.839Z,100411.25
2022-12-29T19:41:35.223Z,100417.39
2022-12-29T19:42:39.388Z,100419.72
2022-12-29T19:43:42.693Z,100419.33
2022-12-29T19:44:48.974Z,100414.67
2022-12-29T19:45:54.239Z,100416.39
2022-12-29T19:46:57.998Z,100406.90
2022-12-29T19:48:01.377Z,100413.77
2022-12-29T19:49:04.678Z,100413.09
2022-12-29T19:50:09.395Z,100411.51
2022-12-29T19:51:13.050Z,100404.55
2022-12-29T19:52:16.640Z,100402.47
2022-12-29T19:53:19.428Z,100392.34
2022-12-29T19:54:22.725Z,100403.06
2022-12-29T19:55:26.121Z,100400.30
2022-12-29T19:56:31.324Z,100401.11
2022-12-29T19:57:33.949Z,100399.40
2022-12-29T19:58:41.634Z,100400.80
2022-12-29T19:59:42.646Z,100398.67
2022-12-29T20:00:45.860Z,100396.81
2022-12-29T20:01:48.731Z,100401.96
2022-12-29T20:02:52.426Z,100405.39
2022-12-29T20:03:58.095Z,100396.34
2022-12-29T20:05:02.395Z,100407.35
2022-12-29T20:06:05.974Z,100406.02
2022-12-29T20:07:14.228Z,100403.68
2022-12-29T20:08:14.555Z,100409.36
2022-12-29T20:09:17.221Z,100408.60
2022-12-29T20:10:19.575Z,100413.84
2022-12-29T20:11:24.379Z,100411.89
2022-12-29T20:12:29.303Z,100408.92
2022-12-29T20:13:36.562Z,100407.25
2022-12-29T20:14:40.858Z,100406.30
2022-12-29T20:15:46.124Z,100414.08
2022-12-29T20:17:10.268Z,100410.31
2022-12-29T20:18:14.416Z,100407.69
2022-12-29T20:19:02.542Z,100407.40
2022-12-29T20:20:06.362Z,100412.45
2022-12-29T20:21:14.367Z,100406.11
2022-12-29T20:22:17.769Z,100404.21
2022-12-29T20:23:20.262Z,100405.78
2022-12-29T20:24:23.632Z,100400.48
2022-12-29T20:25:46.352Z,100403.87
2022-12-29T20:26:34.815Z,100408.36
2022-12-29T20:27:37.592Z,100404.88
2022-12-29T20:28:41.407Z,100398.44
2022-12-29T20:29:45.367Z,100402.68
2022-12-29T20:31:00.120Z,100394.23
2022-12-29T20:32:06.310Z,100392.38
2022-12-29T20:33:10.485Z,100406.97
2022-12-29T20:34:13.722Z,100413.08
2022-12-29T20:35:17.563Z,100412.17
2022-12-29T20:36:23.652Z,100405.25
2022-12-29T20:37:30.333Z,100400.05
2022-12-29T20:38:33.522Z,100403.44
2022-12-29T20:39:37.764Z,100403.09
2022-12-29T20:40:46.409Z,100404.11
2022-12-29T20:41:50.353Z,100403.48
2022-12-29T20:42:55.632Z,100407.83
2022-12-29T20:43:59.397Z,100399.09
2022-12-29T20:45:02.678Z,100406.82
2022-12-29T20:46:06.007Z,100403.25
2022-12-29T20:47:10.174Z,100408.63
2022-12-29T20:48:12.603Z,100412.47
2022-12-29T20:49:15.160Z,100400.96
2022-12-29T20:50:18.669Z,100412.47
2022-12-29T20:51:21.133Z,100407.64
2022-12-29T20:52:24.628Z,100415.56
2022-12-29T20:53:28.878Z,100417.52
2022-12-29T20:54:38.510Z,100415.80
2022-12-29T20:55:40.843Z,100408.78
2022-12-29T20:56:42.202Z,100403.35
2022-12-29T20:58:21.891Z,100411.27
2022-12-29T20:59:55.526Z,100406.11
2022-12-29T21:01:00.573Z,100403.01
2022-12-29T21:02:03.987Z,100403.06
2022-12-29T21:03:09.518Z,100411.08
2022-12-29T21:04:11.947Z,100417.19
2022-12-29T21:05:23.633Z,100408.45
2022-12-29T21:06:22.205Z,100410.13
2022-12-29T21:07:24.673Z,100413.51
2022-12-29T21:08:28.598Z,100405.78
2022-12-29T21:09:31.182Z,100406.69
2022-12-29T21:10:34.700Z,100399.48
2022-12-29T21:11:38.592Z,100400.38
2022-12-29T21:12:41.865Z,100401.01
2022-12-29T21:13:45.697Z,100404.88
2022-12-29T21:14:49.189Z,100398.62
2022-12-29T21:15:59.695Z,100400.63
2022-12-29T21:17:03.409Z,100392.71
2022-12-29T21:18:06.092Z,100395.53
2022-12-29T21:19:10.135Z,100393.14
2022-12-29T21:20:23.959Z,100386.17
2022-12-29T21:21:27.043Z,100388.80
2022-12-29T21:22:31.255Z,100395.66
2022-12-29T21:23:34.874Z,100387.52
2022-12-29T21:24:38.886Z,100374.67
2022-12-29T21:25:44.304Z,100384.78
2022-12-29T21:26:46.973Z,100383.84
2022-12-29T21:27:51.155Z,100385.78
2022-12-29T21:28:54.089Z,100387.45
2022-12-29T21:29:58.552Z,100391.32
2022-12-29T21:31:10.143Z,100386.98
2022-12-29T21:32:12.969Z,100393.62
2022-12-29T21:33:20.432Z,100382.27
2022-12-29T21:34:24.671Z,100385.50
2022-12-29T21:35:28.069Z,100384.03
2022-12-29T21:36:33.621Z,100381.78
2022-12-29T21:37:36.239Z,100382.78
2022-12-29T21:38:40.464Z,100385.51
2022-12-29T21:39:44.793Z,100384.97
2022-12-29T21:40:47.987Z,100377.96
2022-12-29T21:41:51.602Z,100385.02
2022-12-29T21:42:55.111Z,100378.77
2022-12-29T21:44:17.732Z,100380.27
2022-12-29T21:45:26.123Z,100375.06
2022-12-29T21:46:29.604Z,100369.23
2022-12-29T21:47:53.943Z,100374.92
2022-12-29T21:48:57.452Z,100373.01
2022-12-29T21:50:00.123Z,100380.02
2022-12-29T21:51:30.893Z,100369.42
2022-12-29T21:52:35.117Z,100382.31
2022-12-29T21:53:39.779Z,100382.87
2022-12-29T21:55:00.494Z,100388.65
2022-12-29T21:56:07.969Z,100384.26
2022-12-29T21:57:16.567Z,100392.05
2022-12-29T21:58:34.826Z,100388.22
2022-12-29T21:59:57.350Z,100386.02
2022-12-29T22:01:21.107Z,100388.65
2022-12-29T22:02:44.863Z,100386.70
2022-12-29T22:04:07.068Z,100394.95
2022-12-29T22:06:59.640Z,100377.75
2022-12-29T22:08:20.683Z,100383.30
2022-12-29T22:09:43.917Z,100384.96
2022-12-29T22:11:07.615Z,100377.00
2022-12-29T22:12:29.059Z,100380.33
2022-12-29T22:13:38.287Z,100384.67
2022-12-29T22:14:41.619Z,100377.55
2022-12-29T22:15:44.232Z,100377.34
2022-12-29T22:16:47.582Z,100387.58
2022-12-29T22:17:51.655Z,100376.23
2022-12-29T22:18:55.737Z,100384.10
2022-12-29T22:20:00.505Z,100379.58
2022-12-29T22:21:09.536Z,100376.23
2022-12-29T22:22:12.527Z,100371.38
2022-12-29T22:23:15.926Z,100373.09
2022-12-29T22:24:19.432Z,100363.75
2022-12-29T22:25:22.409Z,100370.61
2022-12-29T22:26:26.230Z,100360.11
2022-12-29T22:27:31.111Z,100366.14
2022-12-29T22:28:41.385Z,100354.73
2022-12-29T22:29:45.568Z,100355.72
2022-12-29T22:30:49.041Z,100366.47
2022-12-29T22:31:55.788Z,100368.14
2022-12-29T22:33:03.093Z,100363.59
2022-12-29T22:34:06.210Z,100358.27
2022-12-29T22:35:10.683Z,100358.70
2022-12-29T22:36:16.051Z,100357.53
2022-12-29T22:37:19.453Z,100363.52
2022-12-29T22:38:23.881Z,100370.81
2022-12-29T22:39:27.304Z,100359.25
2022-12-29T22:40:29.874Z,100353.25
2022-12-29T22:41:32.118Z,100359.45
2022-12-29T22:42:35.421Z,100364.91
2022-12-29T22:43:38.088Z,100367.58
2022-12-29T22:44:42.457Z,100356.60
2022-12-29T22:45:48.845Z,100358.64
2022-12-29T22:46:53.073Z,100359.33
2022-12-29T22:47:57.325Z,100356.07
2022-12-29T22:49:00.553Z,100363.80
2022-12-29T22:50:06.038Z,100361.31
2022-12-29T22:51:09.403Z,100364.52
2022-12-29T22:52:14.435Z,100376.53
2022-12-29T22:53:17.462Z,100370.00
2022-12-29T22:54:23.236Z,100370.19
2022-12-29T22:55:26.665Z,100366.56
2022-12-29T22:56:30.167Z,100371.53
2022-12-29T22:57:34.193Z,100365.56
2022-12-29T22:58:41.141Z,100373.30
2022-12-29T22:59:44.545Z,100368.18
2022-12-29T23:00:47.833Z,100368.23
2022-12-29T23:01:51.368Z,100377.81
2022-12-29T23:02:55.051Z,100370.00
2022-12-29T23:04:17.514Z,100369.37
2022-12-29T23:05:04.367Z,100363.38
2022-12-29T23:06:07.684Z,100366.41
2022-12-29T23:07:11.995Z,100370.20
2022-12-29T23:08:16.286Z,100362.56
2022-12-29T23:09:21.210Z,100369.52
2022-12-29T23:10:24.723Z,100369.97
2022-12-29T23:11:30.750Z,100371.55
2022-12-29T23:12:38.287Z,100386.50
2022-12-29T23:13:42.575Z,100371.64
2022-12-29T23:14:45.899Z,100377.10
2022-12-29T23:15:49.492Z,100376.32
2022-12-29T23:16:53.959Z,100370.36
2022-12-29T23:17:57.182Z,100377.66
2022-12-29T23:19:01.558Z,100376.02
2022-12-29T23:20:05.763Z,100371.69
2022-12-29T23:21:11.621Z,100364.69
2022-12-29T23:22:16.611Z,100369.02
2022-12-29T23:23:22.160Z,100366.45
2022-12-29T23:24:27.433Z,100368.34
2022-12-29T23:25:30.837Z,100363.88
2022-12-29T23:26:39.768Z,100365.06
2022-12-29T23:27:43.255Z,100365.23
2022-12-29T23:28:56.207Z,100361.72
2022-12-29T23:29:58.200Z,100362.66
2022-12-29T23:31:01.862Z,100364.29
2022-12-29T23:32:05.834Z,100369.41
2022-12-29T23:33:09.082Z,100362.48
2022-12-29T23:34:15.277Z,100359.02
2022-12-29T23:35:17.486Z,100364.20
2022-12-29T23:36:20.042Z,100361.50
2022-12-29T23:37:24.110Z,100364.73
2022-12-29T23:38:27.702Z,100359.49
2022-12-29T23:39:31.311Z,100363.19
2022-12-29T23:40:34.596Z,100359.34
2022-12-29T23:41:41.029Z,100369.00
2022-12-29T23:42:43.395Z,100369.20
2022-12-29T23:43:46.263Z,100370.06
2022-12-29T23:44:50.923Z,100367.57
2022-12-29T23:45:54.107Z,100358.81
2022-12-29T23:46:58.243Z,100363.19
2022-12-29T23:48:03.841Z,100363.11
2022-12-29T23:49:10.989Z,100355.13
2022-12-29T23:50:15.342Z,100367.20
2022-12-29T23:51:18.730Z,100359.34
2022-12-29T23:52:22.040Z,100364.58
2022-12-29T23:53:24.696Z,100362.98
2022-12-29T23:54:27.890Z,100352.43
2022-12-29T23:55:30.250Z,100363.77
2022-12-29T23:56:34.077Z,100353.33
2022-12-29T23:57:37.595Z,100360.37
2022-12-29T23:58:40.975Z,100353.45
2022-12-29T23:59:44.379Z,100367.45
